sensor_id;sensor_type;location;lat;lon;timestamp;pressure;altitude;pressure_sealevel;temperature;humidity
74936;BME280;63501;55.570;37.488;2024-01-16T00:00:50;96471.19;;;23.03;22.72
74936;BME280;63501;55.570;37.488;2024-01-16T00:03:18;96487.41;;;23.10;22.59
74936;BME280;63501;55.570;37.488;2024-01-16T00:05:45;96480.47;;;23.11;22.54
74936;BME280;63501;55.570;37.488;2024-01-16T00:08:14;96468.13;;;23.01;22.60
74936;BME280;63501;55.570;37.488;2024-01-16T00:10:41;96481.56;;;23.08;22.30
74936;BME280;63501;55.570;37.488;2024-01-16T00:13:08;96476.47;;;23.06;22.60
74936;BME280;63501;55.570;37.488;2024-01-16T00:15:36;96482.88;;;23.07;22.73
74936;BME280;63501;55.570;37.488;2024-01-16T00:18:03;96488.50;;;23.07;22.55
74936;BME280;63501;55.570;37.488;2024-01-16T00:20:30;96481.34;;;23.06;22.24
74936;BME280;63501;55.570;37.488;2024-01-16T00:22:57;96470.19;;;23.00;22.49
74936;BME280;63501;55.570;37.488;2024-01-16T00:25:26;96469.44;;;23.00;22.13
74936;BME280;63501;55.570;37.488;2024-01-16T00:27:54;96488.09;;;23.03;22.44
74936;BME280;63501;55.570;37.488;2024-01-16T00:30:22;96478.66;;;23.00;22.45
74936;BME280;63501;55.570;37.488;2024-01-16T00:32:49;96474.75;;;23.03;22.56
74936;BME280;63501;55.570;37.488;2024-01-16T00:35:16;96474.00;;;23.03;22.44
74936;BME280;63501;55.570;37.488;2024-01-16T00:37:44;96480.94;;;23.02;22.71
74936;BME280;63501;55.570;37.488;2024-01-16T00:40:11;96479.63;;;23.03;22.80
74936;BME280;63501;55.570;37.488;2024-01-16T00:42:40;96475.09;;;23.00;22.54
74936;BME280;63501;55.570;37.488;2024-01-16T00:45:07;96484.50;;;23.02;22.64
74936;BME280;63501;55.570;37.488;2024-01-16T00:47:34;96480.94;;;23.02;22.63
74936;BME280;63501;55.570;37.488;2024-01-16T00:50:02;96482.22;;;23.01;22.39
74936;BME280;63501;55.570;37.488;2024-01-16T00:52:29;96486.78;;;23.04;22.47
74936;BME280;63501;55.570;37.488;2024-01-16T00:54:56;96483.00;;;23.01;22.59
74936;BME280;63501;55.570;37.488;2024-01-16T00:57:23;96485.03;;;23.01;22.39
74936;BME280;63501;55.570;37.488;2024-01-16T00:59:52;96466.56;;;22.92;22.32
74936;BME280;63501;55.570;37.488;2024-01-16T01:02:19;96477.38;;;23.01;22.55
74936;BME280;63501;55.570;37.488;2024-01-16T01:04:46;96478.88;;;23.02;22.24
74936;BME280;63501;55.570;37.488;2024-01-16T01:07:13;96467.50;;;22.94;22.68
74936;BME280;63501;55.570;37.488;2024-01-16T01:09:40;96469.31;;;23.05;22.26
74936;BME280;63501;55.570;37.488;2024-01-16T01:12:08;96473.44;;;23.04;22.69
74936;BME280;63501;55.570;37.488;2024-01-16T01:14:35;96474.94;;;23.05;22.74
74936;BME280;63501;55.570;37.488;2024-01-16T01:17:04;96461.00;;;23.00;22.57
74936;BME280;63501;55.570;37.488;2024-01-16T01:19:32;96467.81;;;23.04;22.74
74936;BME280;63501;55.570;37.488;2024-01-16T01:21:59;96464.22;;;23.04;22.78
74936;BME280;63501;55.570;37.488;2024-01-16T01:24:26;96469.31;;;23.05;22.63
74936;BME280;63501;55.570;37.488;2024-01-16T01:26:53;96472.13;;;23.05;22.62
74936;BME280;63501;55.570;37.488;2024-01-16T01:29:21;96475.69;;;23.06;22.92
74936;BME280;63501;55.570;37.488;2024-01-16T01:31:48;96462.94;;;23.05;22.72
74936;BME280;63501;55.570;37.488;2024-01-16T01:34:16;96468.56;;;23.05;22.68
74936;BME280;63501;55.570;37.488;2024-01-16T01:36:43;96456.88;;;23.01;22.57
74936;BME280;63501;55.570;37.488;2024-01-16T01:39:11;96467.47;;;23.08;22.68
74936;BME280;63501;55.570;37.488;2024-01-16T01:41:38;96464.44;;;23.06;22.77
74936;BME280;63501;55.570;37.488;2024-01-16T01:44:06;96462.78;;;23.10;22.92
74936;BME280;63501;55.570;37.488;2024-01-16T01:46:35;96456.53;;;23.04;22.99
74936;BME280;63501;55.570;37.488;2024-01-16T01:49:02;96464.53;;;23.13;22.79
74936;BME280;63501;55.570;37.488;2024-01-16T01:51:32;96463.97;;;23.15;22.70
74936;BME280;63501;55.570;37.488;2024-01-16T01:54:01;96465.28;;;23.14;22.65
74936;BME280;63501;55.570;37.488;2024-01-16T01:56:29;96471.13;;;23.16;22.75
74936;BME280;63501;55.570;37.488;2024-01-16T01:58:56;96461.16;;;23.15;22.67
74936;BME280;63501;55.570;37.488;2024-01-16T02:01:25;96459.66;;;23.14;22.71
74936;BME280;63501;55.570;37.488;2024-01-16T02:03:55;96456.06;;;23.13;22.77
74936;BME280;63501;55.570;37.488;2024-01-16T02:06:23;96451.19;;;23.14;22.60
74936;BME280;63501;55.570;37.488;2024-01-16T02:08:52;96448.38;;;23.14;22.72
74936;BME280;63501;55.570;37.488;2024-01-16T02:11:20;96460.41;;;23.14;22.75
74936;BME280;63501;55.570;37.488;2024-01-16T02:13:47;96459.97;;;23.10;22.69
74936;BME280;63501;55.570;37.488;2024-01-16T02:16:18;96465.84;;;23.12;22.73
74936;BME280;63501;55.570;37.488;2024-01-16T02:18:46;96464.31;;;23.11;22.64
74936;BME280;63501;55.570;37.488;2024-01-16T02:21:15;96454.03;;;23.01;22.44
74936;BME280;63501;55.570;37.488;2024-01-16T02:23:45;96458.47;;;23.09;22.59
74936;BME280;63501;55.570;37.488;2024-01-16T02:26:14;96464.44;;;23.06;22.87
74936;BME280;63501;55.570;37.488;2024-01-16T02:28:41;96456.13;;;23.00;22.46
74936;BME280;63501;55.570;37.488;2024-01-16T02:31:09;96467.06;;;23.04;21.97
74936;BME280;63501;55.570;37.488;2024-01-16T02:33:36;96470.06;;;23.06;22.61
74936;BME280;63501;55.570;37.488;2024-01-16T02:36:04;96460.78;;;22.98;22.53
74936;BME280;63501;55.570;37.488;2024-01-16T02:38:30;96471.19;;;23.03;22.68
74936;BME280;63501;55.570;37.488;2024-01-16T02:40:59;96464.78;;;23.02;22.39
74936;BME280;63501;55.570;37.488;2024-01-16T02:43:26;96470.94;;;23.01;22.44
74936;BME280;63501;55.570;37.488;2024-01-16T02:45:53;96469.44;;;23.00;22.35
74936;BME280;63501;55.570;37.488;2024-01-16T02:48:21;96470.75;;;22.99;22.53
74936;BME280;63501;55.570;37.488;2024-01-16T02:50:48;96470.75;;;22.99;22.34
74936;BME280;63501;55.570;37.488;2024-01-16T02:53:15;96470.75;;;22.99;22.77
74936;BME280;63501;55.570;37.488;2024-01-16T02:55:42;96474.88;;;22.98;22.56
74936;BME280;63501;55.570;37.488;2024-01-16T02:58:11;96472.25;;;23.00;22.52
74936;BME280;63501;55.570;37.488;2024-01-16T03:00:38;96463.00;;;22.91;22.59
74936;BME280;63501;55.570;37.488;2024-01-16T03:03:05;96477.16;;;22.99;22.40
74936;BME280;63501;55.570;37.488;2024-01-16T03:05:33;96477.91;;;23.00;22.54
74936;BME280;63501;55.570;37.488;2024-01-16T03:08:01;96474.31;;;22.99;22.22
74936;BME280;63501;55.570;37.488;2024-01-16T03:10:28;96481.06;;;22.96;22.46
74936;BME280;63501;55.570;37.488;2024-01-16T03:12:55;96483.88;;;22.96;22.33
74936;BME280;63501;55.570;37.488;2024-01-16T03:15:23;96479.00;;;22.96;22.50
74936;BME280;63501;55.570;37.488;2024-01-16T03:17:51;96481.41;;;22.92;22.43
74936;BME280;63501;55.570;37.488;2024-01-16T03:20:18;96487.22;;;22.94;22.26
74936;BME280;63501;55.570;37.488;2024-01-16T03:22:46;96486.47;;;22.94;22.60
74936;BME280;63501;55.570;37.488;2024-01-16T03:25:13;96484.00;;;22.90;22.47
74936;BME280;63501;55.570;37.488;2024-01-16T03:27:40;96480.31;;;22.95;22.62
74936;BME280;63501;55.570;37.488;2024-01-16T03:30:08;96485.94;;;22.95;22.67
74936;BME280;63501;55.570;37.488;2024-01-16T03:32:37;96483.13;;;22.95;22.58
74936;BME280;63501;55.570;37.488;2024-01-16T03:35:05;96482.91;;;22.93;22.37
74936;BME280;63501;55.570;37.488;2024-01-16T03:37:33;96481.41;;;22.92;22.62
74936;BME280;63501;55.570;37.488;2024-01-16T03:40:01;96486.16;;;22.98;22.87
74936;BME280;63501;55.570;37.488;2024-01-16T03:42:29;96479.00;;;22.96;22.67
74936;BME280;63501;55.570;37.488;2024-01-16T03:44:56;96479.75;;;22.97;22.64
74936;BME280;63501;55.570;37.488;2024-01-16T03:47:23;96479.22;;;22.99;22.88
74936;BME280;63501;55.570;37.488;2024-01-16T03:49:53;96479.75;;;22.97;22.69
74936;BME280;63501;55.570;37.488;2024-01-16T03:52:20;96486.34;;;23.00;22.92
74936;BME280;63501;55.570;37.488;2024-01-16T03:54:48;96463.19;;;22.93;22.92
74936;BME280;63501;55.570;37.488;2024-01-16T03:57:15;96475.50;;;23.04;22.88
74936;BME280;63501;55.570;37.488;2024-01-16T03:59:43;96476.47;;;23.06;23.49
74936;BME280;63501;55.570;37.488;2024-01-16T04:02:10;96471.59;;;23.07;24.21
74936;BME280;63501;55.570;37.488;2024-01-16T04:04:37;96478.00;;;23.07;24.59
74936;BME280;63501;55.570;37.488;2024-01-16T04:07:05;96475.56;;;23.11;25.23
74936;BME280;63501;55.570;37.488;2024-01-16T04:09:33;96463.34;;;23.09;25.51
74936;BME280;63501;55.570;37.488;2024-01-16T04:12:00;96462.03;;;23.10;26.05
74936;BME280;63501;55.570;37.488;2024-01-16T04:14:27;96459.78;;;23.08;26.27
74936;BME280;63501;55.570;37.488;2024-01-16T04:16:54;96472.44;;;23.15;26.96
74936;BME280;63501;55.570;37.488;2024-01-16T04:19:22;96470.91;;;23.14;27.61
74936;BME280;63501;55.570;37.488;2024-01-16T04:21:49;96471.34;;;23.18;27.62
74936;BME280;63501;55.570;37.488;2024-01-16T04:24:18;96476.41;;;23.19;28.33
74936;BME280;63501;55.570;37.488;2024-01-16T04:26:45;96473.59;;;23.19;28.18
74936;BME280;63501;55.570;37.488;2024-01-16T04:29:12;96480.19;;;23.22;28.56
74936;BME280;63501;55.570;37.488;2024-01-16T04:31:39;96480.59;;;23.26;28.55
74936;BME280;63501;55.570;37.488;2024-01-16T04:34:07;96475.31;;;23.22;28.34
74936;BME280;63501;55.570;37.488;2024-01-16T04:36:34;96480.59;;;23.26;28.10
74936;BME280;63501;55.570;37.488;2024-01-16T04:39:02;96473.25;;;23.23;28.08
74936;BME280;63501;55.570;37.488;2024-01-16T04:41:31;96489.50;;;23.30;27.90
74936;BME280;63501;55.570;37.488;2024-01-16T04:43:59;96477.59;;;23.24;27.91
74936;BME280;63501;55.570;37.488;2024-01-16T04:46:26;96485.31;;;23.23;27.95
74936;BME280;63501;55.570;37.488;2024-01-16T04:48:53;96483.44;;;23.26;27.75
74936;BME280;63501;55.570;37.488;2024-01-16T04:51:21;96493.41;;;23.27;27.78
74936;BME280;63501;55.570;37.488;2024-01-16T04:53:48;96498.47;;;23.29;27.63
74936;BME280;63501;55.570;37.488;2024-01-16T04:56:15;96492.84;;;23.29;27.50
74936;BME280;63501;55.570;37.488;2024-01-16T04:58:44;96489.06;;;23.26;27.16
74936;BME280;63501;55.570;37.488;2024-01-16T05:01:12;96498.47;;;23.29;27.01
74936;BME280;63501;55.570;37.488;2024-01-16T05:03:39;96484.19;;;23.27;26.86
74936;BME280;63501;55.570;37.488;2024-01-16T05:06:12;96492.63;;;23.27;26.67
74936;BME280;63501;55.570;37.488;2024-01-16T05:08:40;96489.06;;;23.26;26.60
74936;BME280;63501;55.570;37.488;2024-01-16T05:11:08;96493.94;;;23.26;26.21
74936;BME280;63501;55.570;37.488;2024-01-16T05:13:34;96493.19;;;23.25;26.20
74936;BME280;63501;55.570;37.488;2024-01-16T05:16:04;96488.88;;;23.24;26.11
74936;BME280;63501;55.570;37.488;2024-01-16T05:18:31;96487.13;;;23.21;25.98
74936;BME280;63501;55.570;37.488;2024-01-16T05:20:59;96502.53;;;23.20;25.17
74936;BME280;63501;55.570;37.488;2024-01-16T05:23:28;96504.19;;;22.68;24.36
74936;BME280;63501;55.570;37.488;2024-01-16T05:25:55;96499.56;;;21.78;24.14
74936;BME280;63501;55.570;37.488;2024-01-16T05:28:22;96510.53;;;20.79;23.57
74936;BME280;63501;55.570;37.488;2024-01-16T05:30:49;96531.72;;;19.88;23.50
74936;BME280;63501;55.570;37.488;2024-01-16T05:33:18;96530.34;;;19.05;24.42
74936;BME280;63501;55.570;37.488;2024-01-16T05:35:45;96512.69;;;18.21;24.74
74936;BME280;63501;55.570;37.488;2024-01-16T05:38:12;96530.84;;;17.64;24.88
74936;BME280;63501;55.570;37.488;2024-01-16T05:40:39;96524.50;;;17.36;25.27
74936;BME280;63501;55.570;37.488;2024-01-16T05:43:07;96523.47;;;17.61;25.61
74936;BME280;63501;55.570;37.488;2024-01-16T05:45:34;96522.94;;;18.02;25.28
74936;BME280;63501;55.570;37.488;2024-01-16T05:48:01;96515.16;;;18.42;25.21
74936;BME280;63501;55.570;37.488;2024-01-16T05:50:30;96502.03;;;18.72;24.71
74936;BME280;63501;55.570;37.488;2024-01-16T05:52:57;96509.91;;;19.15;25.13
74936;BME280;63501;55.570;37.488;2024-01-16T05:55:25;96509.38;;;19.47;25.03
74936;BME280;63501;55.570;37.488;2024-01-16T05:57:52;96501.75;;;19.77;24.13
74936;BME280;63501;55.570;37.488;2024-01-16T06:00:19;96496.41;;;20.04;23.79
74936;BME280;63501;55.570;37.488;2024-01-16T06:02:48;96501.22;;;20.28;24.10
74936;BME280;63501;55.570;37.488;2024-01-16T06:05:15;96506.41;;;20.43;23.83
74936;BME280;63501;55.570;37.488;2024-01-16T06:07:44;96515.81;;;20.64;24.17
74936;BME280;63501;55.570;37.488;2024-01-16T06:10:12;96497.25;;;20.61;23.76
74936;BME280;63501;55.570;37.488;2024-01-16T06:12:39;96523.56;;;20.96;23.41
74936;BME280;63501;55.570;37.488;2024-01-16T06:15:06;96527.66;;;21.13;24.25
74936;BME280;63501;55.570;37.488;2024-01-16T06:17:34;96529.00;;;21.26;24.07
74936;BME280;63501;55.570;37.488;2024-01-16T06:20:02;96527.34;;;21.36;23.64
74936;BME280;63501;55.570;37.488;2024-01-16T06:22:30;96500.34;;;21.46;23.79
74936;BME280;63501;55.570;37.488;2024-01-16T06:24:58;96495.06;;;21.56;23.31
74936;BME280;63501;55.570;37.488;2024-01-16T06:27:27;96491.19;;;21.59;23.52
74936;BME280;63501;55.570;37.488;2024-01-16T06:29:54;96499.41;;;21.70;23.67
74936;BME280;63501;55.570;37.488;2024-01-16T06:32:21;96526.28;;;21.84;23.53
74936;BME280;63501;55.570;37.488;2024-01-16T06:34:49;96516.97;;;21.89;23.36
74936;BME280;63501;55.570;37.488;2024-01-16T06:37:16;96506.47;;;21.90;23.21
74936;BME280;63501;55.570;37.488;2024-01-16T06:39:43;96518.72;;;22.06;22.98
74936;BME280;63501;55.570;37.488;2024-01-16T06:42:12;96517.88;;;22.11;22.74
74936;BME280;63501;55.570;37.488;2024-01-16T06:44:39;96503.66;;;22.03;23.25
74936;BME280;63501;55.570;37.488;2024-01-16T06:47:06;96522.88;;;22.18;23.11
74936;BME280;63501;55.570;37.488;2024-01-16T06:49:34;96524.47;;;22.27;22.72
74936;BME280;63501;55.570;37.488;2024-01-16T06:52:01;96511.41;;;22.29;22.75
74936;BME280;63501;55.570;37.488;2024-01-16T06:54:28;96511.59;;;22.31;22.70
74936;BME280;63501;55.570;37.488;2024-01-16T06:56:55;96513.22;;;22.40;22.82
74936;BME280;63501;55.570;37.488;2024-01-16T06:59:24;96521.13;;;22.41;22.66
74936;BME280;63501;55.570;37.488;2024-01-16T07:01:51;96522.19;;;22.38;22.53
74936;BME280;63501;55.570;37.488;2024-01-16T07:04:20;96526.44;;;22.45;22.24
74936;BME280;63501;55.570;37.488;2024-01-16T07:06:47;96521.13;;;22.41;22.63
74936;BME280;63501;55.570;37.488;2024-01-16T07:09:14;96530.97;;;22.48;22.32
74936;BME280;63501;55.570;37.488;2024-01-16T07:11:44;96523.28;;;22.49;22.62
74936;BME280;63501;55.570;37.488;2024-01-16T07:14:11;96521.44;;;22.51;22.36
74936;BME280;63501;55.570;37.488;2024-01-16T07:16:40;96522.19;;;22.52;22.06
74936;BME280;63501;55.570;37.488;2024-01-16T07:19:07;96521.75;;;22.48;22.58
74936;BME280;63501;55.570;37.488;2024-01-16T07:21:34;96523.72;;;22.53;22.34
74936;BME280;63501;55.570;37.488;2024-01-16T07:24:02;96521.09;;;22.55;22.39
74936;BME280;63501;55.570;37.488;2024-01-16T07:26:29;96522.84;;;22.58;22.05
74936;BME280;63501;55.570;37.488;2024-01-16T07:28:56;96527.91;;;22.59;22.20
74936;BME280;63501;55.570;37.488;2024-01-16T07:31:24;96530.19;;;22.61;22.43
74936;BME280;63501;55.570;37.488;2024-01-16T07:33:52;96519.78;;;22.56;22.18
74936;BME280;63501;55.570;37.488;2024-01-16T07:36:20;96533.00;;;22.61;22.24
74936;BME280;63501;55.570;37.488;2024-01-16T07:38:47;96526.09;;;22.62;22.09
74936;BME280;63501;55.570;37.488;2024-01-16T07:41:14;96521.97;;;22.63;22.18
74936;BME280;63501;55.570;37.488;2024-01-16T07:43:41;96516.88;;;22.61;22.04
74936;BME280;63501;55.570;37.488;2024-01-16T07:46:09;96519.69;;;22.61;22.29
74936;BME280;63501;55.570;37.488;2024-01-16T07:48:36;96513.72;;;22.65;22.25
74936;BME280;63501;55.570;37.488;2024-01-16T07:51:05;96510.16;;;22.64;21.79
74936;BME280;63501;55.570;37.488;2024-01-16T07:53:32;96525.41;;;22.69;22.17
74936;BME280;63501;55.570;37.488;2024-01-16T07:56:00;96510.78;;;22.70;21.80
74936;BME280;63501;55.570;37.488;2024-01-16T07:58:27;96489.47;;;22.62;21.87
74936;BME280;63501;55.570;37.488;2024-01-16T08:00:54;96510.22;;;22.72;21.73
74936;BME280;63501;55.570;37.488;2024-01-16T08:03:21;96510.22;;;22.72;21.57
74936;BME280;63501;55.570;37.488;2024-01-16T08:05:49;96501.78;;;22.72;21.55
74936;BME280;63501;55.570;37.488;2024-01-16T08:08:18;96497.25;;;22.69;21.77
74936;BME280;63501;55.570;37.488;2024-01-16T08:10:45;96499.94;;;22.75;21.72
74936;BME280;63501;55.570;37.488;2024-01-16T08:13:12;96502.41;;;22.78;21.65
74936;BME280;63501;55.570;37.488;2024-01-16T08:15:40;96491.16;;;22.78;21.78
74936;BME280;63501;55.570;37.488;2024-01-16T08:18:07;96492.13;;;22.81;21.53
74936;BME280;63501;55.570;37.488;2024-01-16T08:20:34;96485.75;;;22.80;21.36
74936;BME280;63501;55.570;37.488;2024-01-16T08:23:02;96491.81;;;22.84;21.52
74936;BME280;63501;55.570;37.488;2024-01-16T08:25:30;96487.47;;;22.83;21.20
74936;BME280;63501;55.570;37.488;2024-01-16T08:27:58;96495.81;;;22.89;21.52
74936;BME280;63501;55.570;37.488;2024-01-16T08:30:26;96492.47;;;22.90;21.24
74936;BME280;63501;55.570;37.488;2024-01-16T08:32:53;96484.22;;;22.92;21.34
74936;BME280;63501;55.570;37.488;2024-01-16T08:35:20;96487.47;;;22.96;21.24
74936;BME280;63501;55.570;37.488;2024-01-16T08:37:48;96472.19;;;22.92;21.16
74936;BME280;63501;55.570;37.488;2024-01-16T08:40:16;96474.56;;;23.01;21.54
74936;BME280;63501;55.570;37.488;2024-01-16T08:42:46;96482.44;;;23.03;21.45
74936;BME280;63501;55.570;37.488;2024-01-16T08:45:17;96482.44;;;23.03;21.34
74936;BME280;63501;55.570;37.488;2024-01-16T08:47:44;96476.81;;;23.03;21.36
74936;BME280;63501;55.570;37.488;2024-01-16T08:50:11;96473.13;;;23.08;21.55
74936;BME280;63501;55.570;37.488;2024-01-16T08:52:39;96459.69;;;23.01;21.41
74936;BME280;63501;55.570;37.488;2024-01-16T08:55:06;96465.63;;;23.10;21.41
74936;BME280;63501;55.570;37.488;2024-01-16T08:57:34;96479.69;;;23.10;21.49
74936;BME280;63501;55.570;37.488;2024-01-16T09:00:05;96463.91;;;23.07;21.27
74936;BME280;63501;55.570;37.488;2024-01-16T09:02:34;96468.66;;;23.12;21.41
74936;BME280;63501;55.570;37.488;2024-01-16T09:05:02;96462.47;;;23.14;21.41
74936;BME280;63501;55.570;37.488;2024-01-16T09:07:30;96459.66;;;23.14;21.35
74936;BME280;63501;55.570;37.488;2024-01-16T09:09:58;96464.16;;;23.17;21.49
74936;BME280;63501;55.570;37.488;2024-01-16T09:12:25;96460.06;;;23.18;21.19
74936;BME280;63501;55.570;37.488;2024-01-16T09:14:52;96463.09;;;23.20;21.39
74936;BME280;63501;55.570;37.488;2024-01-16T09:17:21;96449.88;;;23.15;21.45
74936;BME280;63501;55.570;37.488;2024-01-16T09:19:48;96450.50;;;23.21;21.34
74936;BME280;63501;55.570;37.488;2024-01-16T09:22:16;96443.69;;;23.16;21.34
74936;BME280;63501;55.570;37.488;2024-01-16T09:24:43;96449.94;;;23.22;21.37
74936;BME280;63501;55.570;37.488;2024-01-16T09:27:11;96452.97;;;23.25;21.42
74936;BME280;63501;55.570;37.488;2024-01-16T09:29:39;96460.88;;;23.26;21.40
74936;BME280;63501;55.570;37.488;2024-01-16T09:32:07;96452.22;;;23.24;21.77
74936;BME280;63501;55.570;37.488;2024-01-16T09:34:36;96454.69;;;23.28;21.61
74936;BME280;63501;55.570;37.488;2024-01-16T09:37:05;96451.88;;;23.28;21.61
74936;BME280;63501;55.570;37.488;2024-01-16T09:39:33;96454.91;;;23.30;21.44
74936;BME280;63501;55.570;37.488;2024-01-16T09:42:04;96448.72;;;23.31;21.67
74936;BME280;63501;55.570;37.488;2024-01-16T09:44:31;96445.34;;;23.33;21.53
74936;BME280;63501;55.570;37.488;2024-01-16T09:47:01;96438.34;;;23.26;21.56
74936;BME280;63501;55.570;37.488;2024-01-16T09:49:29;96434.00;;;23.25;21.66
74936;BME280;63501;55.570;37.488;2024-01-16T09:51:58;96443.69;;;23.37;21.77
74936;BME280;63501;55.570;37.488;2024-01-16T09:54:27;96430.47;;;23.32;21.76
74936;BME280;63501;55.570;37.488;2024-01-16T09:56:58;96429.59;;;23.37;21.63
74936;BME280;63501;55.570;37.488;2024-01-16T09:59:27;96435.97;;;23.38;21.57
74936;BME280;63501;55.570;37.488;2024-01-16T10:01:56;96436.97;;;23.40;21.72
74936;BME280;63501;55.570;37.488;2024-01-16T10:04:24;96434.13;;;23.40;21.78
74936;BME280;63501;55.570;37.488;2024-01-16T10:06:54;96423.06;;;23.42;21.56
74936;BME280;63501;55.570;37.488;2024-01-16T10:09:25;96419.47;;;23.42;21.68
74936;BME280;63501;55.570;37.488;2024-01-16T10:11:52;96419.25;;;23.40;21.77
74936;BME280;63501;55.570;37.488;2024-01-16T10:14:19;96424.56;;;23.43;21.64
74936;BME280;63501;55.570;37.488;2024-01-16T10:16:57;96418.91;;;23.43;21.75
74936;BME280;63501;55.570;37.488;2024-01-16T10:19:26;96426.06;;;23.44;21.77
74936;BME280;63501;55.570;37.488;2024-01-16T10:22:01;96420.22;;;23.42;21.89
74936;BME280;63501;55.570;37.488;2024-01-16T10:24:30;96427.38;;;23.43;21.54
74936;BME280;63501;55.570;37.488;2024-01-16T10:26:59;96423.81;;;23.43;21.75
74936;BME280;63501;55.570;37.488;2024-01-16T10:29:28;96421.00;;;23.43;21.89
74936;BME280;63501;55.570;37.488;2024-01-16T10:31:57;96421.75;;;23.43;21.70
74936;BME280;63501;55.570;37.488;2024-01-16T10:34:25;96411.38;;;23.38;22.02
74936;BME280;63501;55.570;37.488;2024-01-16T10:36:58;96411.78;;;23.42;21.98
74936;BME280;63501;55.570;37.488;2024-01-16T10:39:25;96406.69;;;23.41;22.16
74936;BME280;63501;55.570;37.488;2024-01-16T10:41:58;96416.28;;;23.45;22.41
74936;BME280;63501;55.570;37.488;2024-01-16T10:44:25;96400.31;;;23.40;22.45
74936;BME280;63501;55.570;37.488;2024-01-16T10:47:11;96401.66;;;23.47;22.64
74936;BME280;63501;55.570;37.488;2024-01-16T10:49:38;96402.41;;;23.47;22.93
74936;BME280;63501;55.570;37.488;2024-01-16T10:52:07;96394.16;;;23.49;22.59
74936;BME280;63501;55.570;37.488;2024-01-16T10:54:37;96396.22;;;23.49;22.72
74936;BME280;63501;55.570;37.488;2024-01-16T10:57:10;96399.38;;;23.45;22.84
74936;BME280;63501;55.570;37.488;2024-01-16T10:59:49;96397.13;;;23.44;23.02
74936;BME280;63501;55.570;37.488;2024-01-16T11:02:20;96369.44;;;23.35;22.89
74936;BME280;63501;55.570;37.488;2024-01-16T11:04:53;96381.94;;;23.47;22.69
74936;BME280;63501;55.570;37.488;2024-01-16T11:07:21;96387.75;;;23.49;23.12
74936;BME280;63501;55.570;37.488;2024-01-16T11:09:52;96383.28;;;23.54;23.13
74936;BME280;63501;55.570;37.488;2024-01-16T11:12:23;96381.97;;;23.55;23.06
74936;BME280;63501;55.570;37.488;2024-01-16T11:14:52;96373.66;;;23.49;23.18
74936;BME280;63501;55.570;37.488;2024-01-16T11:17:19;96386.28;;;23.56;22.98
74936;BME280;63501;55.570;37.488;2024-01-16T11:19:48;96382.16;;;23.57;23.20
74936;BME280;63501;55.570;37.488;2024-01-16T11:22:16;96371.59;;;23.49;23.01
74936;BME280;63501;55.570;37.488;2024-01-16T11:24:45;96356.00;;;23.48;23.27
74936;BME280;63501;55.570;37.488;2024-01-16T11:27:22;96365.94;;;23.49;22.97
74936;BME280;63501;55.570;37.488;2024-01-16T11:29:50;96365.63;;;23.53;23.31
74936;BME280;63501;55.570;37.488;2024-01-16T11:32:33;96366.56;;;23.56;23.10
74936;BME280;63501;55.570;37.488;2024-01-16T11:35:01;96356.56;;;23.47;22.95
74936;BME280;63501;55.570;37.488;2024-01-16T11:37:29;96359.41;;;23.55;22.94
74936;BME280;63501;55.570;37.488;2024-01-16T11:40:20;96365.06;;;23.55;23.23
74936;BME280;63501;55.570;37.488;2024-01-16T11:42:50;96351.25;;;23.43;23.34
74936;BME280;63501;55.570;37.488;2024-01-16T11:45:50;96362.78;;;23.53;23.09
74936;BME280;63501;55.570;37.488;2024-01-16T11:48:19;96349.59;;;23.48;23.12
74936;BME280;63501;55.570;37.488;2024-01-16T11:50:47;96347.13;;;23.44;23.08
74936;BME280;63501;55.570;37.488;2024-01-16T11:53:36;96361.81;;;23.50;23.29
74936;BME280;63501;55.570;37.488;2024-01-16T12:02:26;96343.78;;;23.46;23.17
74936;BME280;63501;55.570;37.488;2024-01-16T12:04:58;96353.16;;;23.48;23.11
74936;BME280;63501;55.570;37.488;2024-01-16T12:07:33;96328.09;;;23.37;22.77
74936;BME280;63501;55.570;37.488;2024-01-16T12:10:09;96353.72;;;23.47;22.94
74936;BME280;63501;55.570;37.488;2024-01-16T12:12:36;96328.84;;;23.38;23.08
74936;BME280;63501;55.570;37.488;2024-01-16T12:15:04;96345.28;;;23.47;22.91
74936;BME280;63501;55.570;37.488;2024-01-16T12:17:34;96342.22;;;23.45;23.00
74936;BME280;63501;55.570;37.488;2024-01-16T12:20:16;96334.75;;;23.47;22.92
74936;BME280;63501;55.570;37.488;2024-01-16T12:22:43;96338.88;;;23.46;22.92
74936;BME280;63501;55.570;37.488;2024-01-16T12:25:10;96317.91;;;23.34;22.77
74936;BME280;63501;55.570;37.488;2024-01-16T12:27:38;96327.59;;;23.46;22.97
74936;BME280;63501;55.570;37.488;2024-01-16T12:30:07;96313.25;;;23.37;22.87
74936;BME280;63501;55.570;37.488;2024-01-16T12:32:36;96309.13;;;23.38;23.06
74936;BME280;63501;55.570;37.488;2024-01-16T12:35:03;96327.78;;;23.48;23.10
74936;BME280;63501;55.570;37.488;2024-01-16T12:37:31;96328.53;;;23.49;23.20
74936;BME280;63501;55.570;37.488;2024-01-16T12:39:59;96330.63;;;23.48;23.16
74936;BME280;63501;55.570;37.488;2024-01-16T12:42:26;96329.28;;;23.49;23.05
74936;BME280;63501;55.570;37.488;2024-01-16T12:44:55;96328.53;;;23.49;23.09
74936;BME280;63501;55.570;37.488;2024-01-16T12:47:22;96321.59;;;23.50;23.03
74936;BME280;63501;55.570;37.488;2024-01-16T12:49:51;96317.25;;;23.49;23.11
74936;BME280;63501;55.570;37.488;2024-01-16T12:52:21;96315.19;;;23.49;23.20
74936;BME280;63501;55.570;37.488;2024-01-16T12:54:59;96315.19;;;23.49;23.12
74936;BME280;63501;55.570;37.488;2024-01-16T12:57:26;96318.03;;;23.49;22.88
74936;BME280;63501;55.570;37.488;2024-01-16T12:59:53;96320.09;;;23.49;23.16
74936;BME280;63501;55.570;37.488;2024-01-16T13:02:23;96308.97;;;23.43;22.93